sensor_id;sensor_type;location;lat;lon;timestamp;P1;durP1;ratioP1;P2;durP2;ratioP2
5491;SDS011;2768;53.540;10.224;2022-12-07T00:00:19;13.03;;;9.70;;
5491;SDS011;2768;53.540;10.224;2022-12-07T00:06:15;10.60;;;9.50;;
5491;SDS011;2768;53.540;10.224;2022-12-07T00:12:09;10.20;;;8.60;;
5491;SDS011;2768;53.540;10.224;2022-12-07T00:18:02;16.47;;;8.87;;
5491;SDS011;2768;53.540;10.224;2022-12-07T00:23:57;11.63;;;9.67;;
5491;SDS011;2768;53.540;10.224;2022-12-07T00:29:51;11.50;;;9.30;;
5491;SDS011;2768;53.540;10.224;2022-12-07T00:35:44;11.27;;;10.03;;
5491;SDS011;2768;53.540;10.224;2022-12-07T00:41:39;11.87;;;9.70;;
5491;SDS011;2768;53.540;10.224;2022-12-07T00:47:33;10.60;;;9.50;;
5491;SDS011;2768;53.540;10.224;2022-12-07T00:53:26;12.07;;;9.53;;
5491;SDS011;2768;53.540;10.224;2022-12-07T00:59:21;10.77;;;9.63;;
5491;SDS011;2768;53.540;10.224;2022-12-07T01:05:15;9.83;;;8.07;;
5491;SDS011;2768;53.540;10.224;2022-12-07T01:11:09;10.13;;;8.67;;
5491;SDS011;2768;53.540;10.224;2022-12-07T01:17:06;9.93;;;8.70;;
5491;SDS011;2768;53.540;10.224;2022-12-07T01:22:59;9.77;;;8.40;;
5491;SDS011;2768;53.540;10.224;2022-12-07T01:28:53;10.40;;;8.10;;
5491;SDS011;2768;53.540;10.224;2022-12-07T01:34:49;11.13;;;8.07;;
5491;SDS011;2768;53.540;10.224;2022-12-07T01:40:42;11.17;;;7.63;;
5491;SDS011;2768;53.540;10.224;2022-12-07T01:46:36;9.17;;;7.93;;
5491;SDS011;2768;53.540;10.224;2022-12-07T01:52:31;8.97;;;6.00;;
5491;SDS011;2768;53.540;10.224;2022-12-07T01:58:28;6.67;;;5.93;;
5491;SDS011;2768;53.540;10.224;2022-12-07T02:04:21;8.97;;;7.00;;
5491;SDS011;2768;53.540;10.224;2022-12-07T02:10:18;8.10;;;6.80;;
5491;SDS011;2768;53.540;10.224;2022-12-07T02:16:20;10.63;;;7.40;;
5491;SDS011;2768;53.540;10.224;2022-12-07T02:22:26;8.57;;;7.53;;
5491;SDS011;2768;53.540;10.224;2022-12-07T02:28:36;9.83;;;7.53;;
5491;SDS011;2768;53.540;10.224;2022-12-07T02:34:37;7.40;;;6.70;;
5491;SDS011;2768;53.540;10.224;2022-12-07T02:40:38;7.53;;;6.00;;
5491;SDS011;2768;53.540;10.224;2022-12-07T02:46:36;7.30;;;5.77;;
5491;SDS011;2768;53.540;10.224;2022-12-07T02:52:34;6.60;;;4.90;;
5491;SDS011;2768;53.540;10.224;2022-12-07T02:58:31;4.40;;;4.00;;
5491;SDS011;2768;53.540;10.224;2022-12-07T03:04:33;4.70;;;3.90;;
5491;SDS011;2768;53.540;10.224;2022-12-07T03:10:40;3.53;;;3.00;;
5491;SDS011;2768;53.540;10.224;2022-12-07T03:16:42;3.70;;;2.80;;
5491;SDS011;2768;53.540;10.224;2022-12-07T03:22:41;4.70;;;2.67;;
5491;SDS011;2768;53.540;10.224;2022-12-07T03:28:40;4.27;;;2.50;;
5491;SDS011;2768;53.540;10.224;2022-12-07T03:34:39;2.60;;;2.30;;
5491;SDS011;2768;53.540;10.224;2022-12-07T03:40:37;3.20;;;2.30;;
5491;SDS011;2768;53.540;10.224;2022-12-07T03:46:37;4.13;;;1.90;;
5491;SDS011;2768;53.540;10.224;2022-12-07T03:52:37;3.63;;;1.90;;
5491;SDS011;2768;53.540;10.224;2022-12-07T03:58:34;1.70;;;1.60;;
5491;SDS011;2768;53.540;10.224;2022-12-07T04:04:30;2.97;;;1.90;;
5491;SDS011;2768;53.540;10.224;2022-12-07T04:10:25;2.00;;;1.53;;
5491;SDS011;2768;53.540;10.224;2022-12-07T04:16:18;1.63;;;1.53;;
5491;SDS011;2768;53.540;10.224;2022-12-07T04:22:13;2.40;;;1.40;;
5491;SDS011;2768;53.540;10.224;2022-12-07T04:28:07;1.60;;;1.50;;
5491;SDS011;2768;53.540;10.224;2022-12-07T04:34:00;2.27;;;1.43;;
5491;SDS011;2768;53.540;10.224;2022-12-07T04:39:55;2.00;;;1.80;;
5491;SDS011;2768;53.540;10.224;2022-12-07T04:45:48;3.87;;;1.90;;
5491;SDS011;2768;53.540;10.224;2022-12-07T04:51:43;2.20;;;1.53;;
5491;SDS011;2768;53.540;10.224;2022-12-07T04:57:38;1.67;;;1.50;;
5491;SDS011;2768;53.540;10.224;2022-12-07T05:03:31;2.17;;;1.70;;
5491;SDS011;2768;53.540;10.224;2022-12-07T05:09:25;3.80;;;1.50;;
5491;SDS011;2768;53.540;10.224;2022-12-07T05:15:19;1.77;;;1.67;;
5491;SDS011;2768;53.540;10.224;2022-12-07T05:21:12;2.80;;;2.10;;
5491;SDS011;2768;53.540;10.224;2022-12-07T05:27:06;1.77;;;1.67;;
5491;SDS011;2768;53.540;10.224;2022-12-07T05:33:01;3.07;;;1.83;;
5491;SDS011;2768;53.540;10.224;2022-12-07T05:38:55;4.13;;;2.00;;
5491;SDS011;2768;53.540;10.224;2022-12-07T05:44:48;3.87;;;2.20;;
5491;SDS011;2768;53.540;10.224;2022-12-07T05:50:43;6.83;;;2.20;;
5491;SDS011;2768;53.540;10.224;2022-12-07T05:56:36;3.10;;;2.43;;
5491;SDS011;2768;53.540;10.224;2022-12-07T06:02:29;4.67;;;2.13;;
5491;SDS011;2768;53.540;10.224;2022-12-07T06:08:25;2.80;;;2.53;;
5491;SDS011;2768;53.540;10.224;2022-12-07T06:14:19;3.23;;;2.33;;
5491;SDS011;2768;53.540;10.224;2022-12-07T06:20:12;2.50;;;2.10;;
5491;SDS011;2768;53.540;10.224;2022-12-07T06:26:06;3.63;;;2.67;;
5491;SDS011;2768;53.540;10.224;2022-12-07T06:32:00;6.07;;;2.43;;
5491;SDS011;2768;53.540;10.224;2022-12-07T06:37:54;2.80;;;2.50;;
5491;SDS011;2768;53.540;10.224;2022-12-07T06:43:49;6.33;;;2.60;;
5491;SDS011;2768;53.540;10.224;2022-12-07T06:49:46;2.57;;;2.37;;
5491;SDS011;2768;53.540;10.224;2022-12-07T06:55:40;3.73;;;2.73;;
5491;SDS011;2768;53.540;10.224;2022-12-07T07:01:35;2.60;;;2.33;;
5491;SDS011;2768;53.540;10.224;2022-12-07T07:07:29;2.53;;;2.20;;
5491;SDS011;2768;53.540;10.224;2022-12-07T07:13:43;6.23;;;4.73;;
5491;SDS011;2768;53.540;10.224;2022-12-07T07:19:38;4.10;;;2.87;;
5491;SDS011;2768;53.540;10.224;2022-12-07T07:25:32;5.20;;;2.20;;
5491;SDS011;2768;53.540;10.224;2022-12-07T07:31:26;3.60;;;2.33;;
5491;SDS011;2768;53.540;10.224;2022-12-07T07:37:21;6.67;;;2.30;;
5491;SDS011;2768;53.540;10.224;2022-12-07T07:43:14;5.60;;;2.30;;
5491;SDS011;2768;53.540;10.224;2022-12-07T07:49:08;4.50;;;1.70;;
5491;SDS011;2768;53.540;10.224;2022-12-07T07:55:04;1.63;;;1.50;;
5491;SDS011;2768;53.540;10.224;2022-12-07T08:01:03;1.93;;;1.57;;
5491;SDS011;2768;53.540;10.224;2022-12-07T08:06:57;6.27;;;1.70;;
5491;SDS011;2768;53.540;10.224;2022-12-07T08:12:51;3.50;;;1.57;;
5491;SDS011;2768;53.540;10.224;2022-12-07T08:19:04;2.93;;;1.50;;
5491;SDS011;2768;53.540;10.224;2022-12-07T08:24:57;2.07;;;1.47;;
5491;SDS011;2768;53.540;10.224;2022-12-07T08:30:52;3.47;;;1.40;;
5491;SDS011;2768;53.540;10.224;2022-12-07T08:36:51;2.13;;;1.30;;
5491;SDS011;2768;53.540;10.224;2022-12-07T08:42:48;5.03;;;1.83;;
5491;SDS011;2768;53.540;10.224;2022-12-07T08:48:44;4.10;;;1.50;;
5491;SDS011;2768;53.540;10.224;2022-12-07T08:54:42;5.23;;;1.83;;
5491;SDS011;2768;53.540;10.224;2022-12-07T09:00:36;3.87;;;1.70;;
5491;SDS011;2768;53.540;10.224;2022-12-07T09:06:31;2.27;;;1.40;;
5491;SDS011;2768;53.540;10.224;2022-12-07T09:12:25;2.67;;;1.93;;
5491;SDS011;2768;53.540;10.224;2022-12-07T09:18:18;1.30;;;1.20;;
5491;SDS011;2768;53.540;10.224;2022-12-07T09:24:13;2.50;;;1.47;;
5491;SDS011;2768;53.540;10.224;2022-12-07T09:30:08;1.33;;;1.10;;
5491;SDS011;2768;53.540;10.224;2022-12-07T09:36:03;5.90;;;2.30;;
5491;SDS011;2768;53.540;10.224;2022-12-07T09:41:59;3.90;;;2.00;;
5491;SDS011;2768;53.540;10.224;2022-12-07T09:47:55;11.23;;;2.60;;
5491;SDS011;2768;53.540;10.224;2022-12-07T09:53:50;3.27;;;1.63;;
5491;SDS011;2768;53.540;10.224;2022-12-07T09:59:46;10.53;;;2.57;;
5491;SDS011;2768;53.540;10.224;2022-12-07T10:05:40;4.87;;;1.40;;
5491;SDS011;2768;53.540;10.224;2022-12-07T10:17:52;3.93;;;1.50;;
5491;SDS011;2768;53.540;10.224;2022-12-07T10:23:58;6.13;;;1.60;;
5491;SDS011;2768;53.540;10.224;2022-12-07T10:29:54;6.00;;;1.47;;
5491;SDS011;2768;53.540;10.224;2022-12-07T10:35:50;3.27;;;1.60;;
5491;SDS011;2768;53.540;10.224;2022-12-07T10:41:53;3.00;;;1.50;;
5491;SDS011;2768;53.540;10.224;2022-12-07T10:47:49;4.83;;;1.83;;
5491;SDS011;2768;53.540;10.224;2022-12-07T10:53:56;7.20;;;1.70;;
5491;SDS011;2768;53.540;10.224;2022-12-07T11:00:07;4.63;;;1.57;;
5491;SDS011;2768;53.540;10.224;2022-12-07T11:06:10;10.90;;;1.60;;
5491;SDS011;2768;53.540;10.224;2022-12-07T11:12:17;4.63;;;1.17;;
5491;SDS011;2768;53.540;10.224;2022-12-07T11:18:19;3.80;;;1.63;;
5491;SDS011;2768;53.540;10.224;2022-12-07T11:24:19;2.90;;;1.30;;
5491;SDS011;2768;53.540;10.224;2022-12-07T11:30:20;5.50;;;2.93;;
5491;SDS011;2768;53.540;10.224;2022-12-07T11:36:19;10.63;;;2.53;;
5491;SDS011;2768;53.540;10.224;2022-12-07T11:42:27;4.23;;;1.63;;
5491;SDS011;2768;53.540;10.224;2022-12-07T11:48:29;2.53;;;1.03;;
5491;SDS011;2768;53.540;10.224;2022-12-07T11:54:28;4.90;;;1.70;;
5491;SDS011;2768;53.540;10.224;2022-12-07T12:00:27;5.03;;;1.40;;
5491;SDS011;2768;53.540;10.224;2022-12-07T12:06:21;4.00;;;1.40;;
5491;SDS011;2768;53.540;10.224;2022-12-07T12:12:29;1.87;;;1.43;;
5491;SDS011;2768;53.540;10.224;2022-12-07T12:18:58;5.13;;;1.83;;
5491;SDS011;2768;53.540;10.224;2022-12-07T12:25:18;5.57;;;1.83;;
5491;SDS011;2768;53.540;10.224;2022-12-07T12:31:16;2.73;;;1.43;;
5491;SDS011;2768;53.540;10.224;2022-12-07T12:37:38;3.50;;;1.83;;
5491;SDS011;2768;53.540;10.224;2022-12-07T12:43:41;3.30;;;1.17;;
5491;SDS011;2768;53.540;10.224;2022-12-07T12:56:21;2.80;;;1.13;;
5491;SDS011;2768;53.540;10.224;2022-12-07T13:02:29;3.00;;;1.40;;
5491;SDS011;2768;53.540;10.224;2022-12-07T13:08:24;2.80;;;1.33;;
5491;SDS011;2768;53.540;10.224;2022-12-07T13:14:37;5.17;;;1.60;;
5491;SDS011;2768;53.540;10.224;2022-12-07T13:20:51;4.13;;;1.80;;
5491;SDS011;2768;53.540;10.224;2022-12-07T13:26:46;5.13;;;1.60;;
5491;SDS011;2768;53.540;10.224;2022-12-07T13:32:39;1.70;;;1.00;;
5491;SDS011;2768;53.540;10.224;2022-12-07T13:38:35;5.77;;;2.03;;
5491;SDS011;2768;53.540;10.224;2022-12-07T13:44:33;3.70;;;1.10;;
5491;SDS011;2768;53.540;10.224;2022-12-07T13:50:32;3.10;;;1.50;;
5491;SDS011;2768;53.540;10.224;2022-12-07T13:56:31;2.57;;;1.17;;
5491;SDS011;2768;53.540;10.224;2022-12-07T14:02:27;2.70;;;1.17;;
5491;SDS011;2768;53.540;10.224;2022-12-07T14:08:25;1.97;;;1.30;;
5491;SDS011;2768;53.540;10.224;2022-12-07T14:14:24;3.43;;;1.40;;
5491;SDS011;2768;53.540;10.224;2022-12-07T14:20:30;1.53;;;0.90;;
5491;SDS011;2768;53.540;10.224;2022-12-07T14:26:25;6.00;;;1.50;;
5491;SDS011;2768;53.540;10.224;2022-12-07T14:32:22;3.33;;;1.07;;
5491;SDS011;2768;53.540;10.224;2022-12-07T14:38:20;3.00;;;1.50;;
5491;SDS011;2768;53.540;10.224;2022-12-07T14:44:14;3.80;;;1.30;;
5491;SDS011;2768;53.540;10.224;2022-12-07T14:50:21;2.43;;;1.40;;
5491;SDS011;2768;53.540;10.224;2022-12-07T14:56:15;3.77;;;1.80;;
5491;SDS011;2768;53.540;10.224;2022-12-07T15:02:09;1.90;;;1.00;;
5491;SDS011;2768;53.540;10.224;2022-12-07T15:08:05;4.20;;;1.27;;
5491;SDS011;2768;53.540;10.224;2022-12-07T15:14:01;4.40;;;1.20;;
5491;SDS011;2768;53.540;10.224;2022-12-07T15:20:04;2.83;;;2.37;;
5491;SDS011;2768;53.540;10.224;2022-12-07T15:26:01;3.07;;;1.10;;
5491;SDS011;2768;53.540;10.224;2022-12-07T15:31:55;1.40;;;1.10;;
5491;SDS011;2768;53.540;10.224;2022-12-07T15:37:49;1.60;;;0.90;;
5491;SDS011;2768;53.540;10.224;2022-12-07T15:43:44;2.17;;;1.20;;
5491;SDS011;2768;53.540;10.224;2022-12-07T15:49:56;4.30;;;1.07;;
5491;SDS011;2768;53.540;10.224;2022-12-07T15:55:50;1.47;;;0.67;;
5491;SDS011;2768;53.540;10.224;2022-12-07T16:01:45;2.50;;;1.33;;
5491;SDS011;2768;53.540;10.224;2022-12-07T16:07:39;3.67;;;1.43;;
5491;SDS011;2768;53.540;10.224;2022-12-07T16:13:32;1.97;;;1.30;;
5491;SDS011;2768;53.540;10.224;2022-12-07T16:19:27;1.93;;;1.83;;
5491;SDS011;2768;53.540;10.224;2022-12-07T16:25:20;3.83;;;1.70;;
5491;SDS011;2768;53.540;10.224;2022-12-07T16:31:20;7.67;;;2.60;;
5491;SDS011;2768;53.540;10.224;2022-12-07T16:37:16;4.60;;;1.60;;
5491;SDS011;2768;53.540;10.224;2022-12-07T16:43:10;3.43;;;2.43;;
5491;SDS011;2768;53.540;10.224;2022-12-07T16:49:05;5.23;;;3.13;;
5491;SDS011;2768;53.540;10.224;2022-12-07T16:55:01;3.77;;;2.17;;
5491;SDS011;2768;53.540;10.224;2022-12-07T17:00:55;2.13;;;1.70;;
5491;SDS011;2768;53.540;10.224;2022-12-07T17:06:49;1.63;;;1.50;;
5491;SDS011;2768;53.540;10.224;2022-12-07T17:12:44;3.13;;;2.13;;
5491;SDS011;2768;53.540;10.224;2022-12-07T17:18:37;2.30;;;2.10;;
5491;SDS011;2768;53.540;10.224;2022-12-07T17:24:31;3.47;;;2.20;;
5491;SDS011;2768;53.540;10.224;2022-12-07T17:30:25;5.13;;;2.60;;
5491;SDS011;2768;53.540;10.224;2022-12-07T17:36:20;6.90;;;3.30;;
5491;SDS011;2768;53.540;10.224;2022-12-07T17:42:15;9.67;;;4.20;;
5491;SDS011;2768;53.540;10.224;2022-12-07T17:48:27;7.47;;;4.93;;
5491;SDS011;2768;53.540;10.224;2022-12-07T17:54:20;5.90;;;4.03;;
5491;SDS011;2768;53.540;10.224;2022-12-07T18:00:14;5.93;;;4.20;;
5491;SDS011;2768;53.540;10.224;2022-12-07T18:06:10;5.83;;;4.27;;
5491;SDS011;2768;53.540;10.224;2022-12-07T18:12:03;5.20;;;3.27;;
5491;SDS011;2768;53.540;10.224;2022-12-07T18:17:57;5.63;;;4.83;;
5491;SDS011;2768;53.540;10.224;2022-12-07T18:23:53;6.93;;;5.00;;
5491;SDS011;2768;53.540;10.224;2022-12-07T18:29:49;8.50;;;6.07;;
5491;SDS011;2768;53.540;10.224;2022-12-07T18:35:42;20.50;;;10.57;;
5491;SDS011;2768;53.540;10.224;2022-12-07T18:41:36;11.03;;;6.47;;
5491;SDS011;2768;53.540;10.224;2022-12-07T18:47:30;5.43;;;4.70;;
5491;SDS011;2768;53.540;10.224;2022-12-07T18:53:23;5.67;;;3.30;;
5491;SDS011;2768;53.540;10.224;2022-12-07T18:59:18;3.43;;;2.20;;
5491;SDS011;2768;53.540;10.224;2022-12-07T19:05:29;6.87;;;4.83;;
5491;SDS011;2768;53.540;10.224;2022-12-07T19:11:23;8.13;;;4.47;;
5491;SDS011;2768;53.540;10.224;2022-12-07T19:17:38;7.80;;;2.90;;
5491;SDS011;2768;53.540;10.224;2022-12-07T19:23:32;6.87;;;3.83;;
5491;SDS011;2768;53.540;10.224;2022-12-07T19:29:27;6.63;;;3.53;;
5491;SDS011;2768;53.540;10.224;2022-12-07T19:35:23;4.00;;;3.20;;
5491;SDS011;2768;53.540;10.224;2022-12-07T19:41:18;4.03;;;3.43;;
5491;SDS011;2768;53.540;10.224;2022-12-07T19:47:26;3.40;;;2.87;;
5491;SDS011;2768;53.540;10.224;2022-12-07T19:53:22;4.60;;;3.20;;
5491;SDS011;2768;53.540;10.224;2022-12-07T19:59:15;4.90;;;3.80;;
5491;SDS011;2768;53.540;10.224;2022-12-07T20:05:10;3.83;;;3.30;;
5491;SDS011;2768;53.540;10.224;2022-12-07T20:11:05;4.30;;;3.57;;
5491;SDS011;2768;53.540;10.224;2022-12-07T20:17:12;10.17;;;7.30;;
5491;SDS011;2768;53.540;10.224;2022-12-07T20:23:05;6.53;;;4.60;;
5491;SDS011;2768;53.540;10.224;2022-12-07T20:29:00;8.43;;;4.40;;
5491;SDS011;2768;53.540;10.224;2022-12-07T20:35:02;4.07;;;3.53;;
5491;SDS011;2768;53.540;10.224;2022-12-07T20:40:58;6.00;;;3.60;;
5491;SDS011;2768;53.540;10.224;2022-12-07T20:46:54;4.47;;;3.90;;
5491;SDS011;2768;53.540;10.224;2022-12-07T20:52:47;5.93;;;5.10;;
5491;SDS011;2768;53.540;10.224;2022-12-07T20:58:41;6.27;;;5.67;;
5491;SDS011;2768;53.540;10.224;2022-12-07T21:04:36;5.43;;;4.93;;
5491;SDS011;2768;53.540;10.224;2022-12-07T21:10:29;15.13;;;12.33;;
5491;SDS011;2768;53.540;10.224;2022-12-07T21:16:24;10.60;;;7.90;;
5491;SDS011;2768;53.540;10.224;2022-12-07T21:22:20;8.80;;;6.87;;
5491;SDS011;2768;53.540;10.224;2022-12-07T21:28:14;8.90;;;6.23;;
5491;SDS011;2768;53.540;10.224;2022-12-07T21:34:07;7.50;;;5.83;;
5491;SDS011;2768;53.540;10.224;2022-12-07T21:40:02;6.20;;;5.30;;
5491;SDS011;2768;53.540;10.224;2022-12-07T21:45:56;7.00;;;5.23;;
5491;SDS011;2768;53.540;10.224;2022-12-07T21:51:49;5.90;;;5.23;;
5491;SDS011;2768;53.540;10.224;2022-12-07T21:57:44;5.60;;;5.10;;
5491;SDS011;2768;53.540;10.224;2022-12-07T22:03:38;6.00;;;5.20;;
5491;SDS011;2768;53.540;10.224;2022-12-07T22:09:31;6.17;;;5.63;;
5491;SDS011;2768;53.540;10.224;2022-12-07T22:15:27;6.47;;;5.93;;
5491;SDS011;2768;53.540;10.224;2022-12-07T22:21:20;5.90;;;5.40;;
5491;SDS011;2768;53.540;10.224;2022-12-07T22:27:14;7.40;;;6.63;;
5491;SDS011;2768;53.540;10.224;2022-12-07T22:33:09;6.43;;;5.90;;
5491;SDS011;2768;53.540;10.224;2022-12-07T22:39:02;7.10;;;6.43;;
5491;SDS011;2768;53.540;10.224;2022-12-07T22:44:56;7.10;;;6.50;;
5491;SDS011;2768;53.540;10.224;2022-12-07T22:50:51;7.97;;;7.17;;
5491;SDS011;2768;53.540;10.224;2022-12-07T22:56:46;9.37;;;8.17;;
5491;SDS011;2768;53.540;10.224;2022-12-07T23:02:39;9.00;;;8.10;;
5491;SDS011;2768;53.540;10.224;2022-12-07T23:08:34;8.50;;;7.70;;
5491;SDS011;2768;53.540;10.224;2022-12-07T23:14:29;7.77;;;7.03;;
5491;SDS011;2768;53.540;10.224;2022-12-07T23:20:24;8.00;;;7.20;;
5491;SDS011;2768;53.540;10.224;2022-12-07T23:26:19;7.07;;;6.47;;
5491;SDS011;2768;53.540;10.224;2022-12-07T23:32:12;8.53;;;7.73;;
5491;SDS011;2768;53.540;10.224;2022-12-07T23:38:05;8.73;;;7.93;;
5491;SDS011;2768;53.540;10.224;2022-12-07T23:44:00;9.40;;;8.40;;
5491;SDS011;2768;53.540;10.224;2022-12-07T23:49:53;9.13;;;8.23;;
5491;SDS011;2768;53.540;10.224;2022-12-07T23:55:46;10.37;;;9.37;;
